createdAt,value
2023-04-10T00:00:21.766Z,440.60
2023-04-10T00:01:21.746Z,372.40
2023-04-10T00:02:21.846Z,374.30
2023-04-10T00:03:21.919Z,506.40
2023-04-10T00:04:21.812Z,474.00
2023-04-10T00:05:21.705Z,408.50
2023-04-10T00:06:21.686Z,536.80
2023-04-10T00:07:21.695Z,592.20
2023-04-10T00:08:21.727Z,398.80
2023-04-10T00:09:21.645Z,514.50
2023-04-10T00:10:21.623Z,508.80
2023-04-10T00:11:21.641Z,513.40
2023-04-10T00:12:21.628Z,543.20
2023-04-10T00:13:21.679Z,553.90
2023-04-10T00:14:21.616Z,620.70
2023-04-10T00:15:21.599Z,575.50
2023-04-10T00:16:21.591Z,587.70
2023-04-10T00:17:21.586Z,439.90
2023-04-10T00:18:21.596Z,489.40
2023-04-10T00:19:21.547Z,465.80
2023-04-10T00:20:21.522Z,445.20
2023-04-10T00:21:21.561Z,592.20
2023-04-10T00:22:21.500Z,618.40
2023-04-10T00:23:21.537Z,641.80
2023-04-10T00:24:21.486Z,584.30
2023-04-10T00:25:21.471Z,562.80
2023-04-10T00:26:21.469Z,562.70
2023-04-10T00:27:21.447Z,369.40
2023-04-10T00:28:21.479Z,533.10
2023-04-10T00:29:21.420Z,531.70
2023-04-10T00:30:21.429Z,598.70
2023-04-10T00:31:21.440Z,606.80
2023-04-10T00:32:21.435Z,507.20
2023-04-10T00:33:21.422Z,508.40
2023-04-10T00:34:21.372Z,450.70
2023-04-10T00:35:21.349Z,361.70
2023-04-10T00:36:21.363Z,599.60
2023-04-10T00:37:21.314Z,505.30
2023-04-10T00:38:21.339Z,428.30
2023-04-10T00:39:21.286Z,530.00
2023-04-10T00:40:21.294Z,452.10
2023-04-10T00:41:21.280Z,435.40
2023-04-10T00:42:21.281Z,564.60
2023-04-10T00:43:21.300Z,549.10
2023-04-10T00:44:21.232Z,486.60
2023-04-10T00:45:21.247Z,497.90
2023-04-10T00:46:21.241Z,512.00
2023-04-10T00:47:21.226Z,335.10
2023-04-10T00:48:21.255Z,615.50
2023-04-10T00:49:21.207Z,543.70
2023-04-10T00:50:21.201Z,505.10
2023-04-10T00:51:21.167Z,498.50
2023-04-10T00:52:21.156Z,497.20
2023-04-10T00:53:21.196Z,435.30
2023-04-10T00:54:21.135Z,392.90
2023-04-10T00:55:21.126Z,406.70
2023-04-10T00:56:21.107Z,363.10
2023-04-10T00:57:21.097Z,515.00
2023-04-10T00:58:21.126Z,510.80
2023-04-10T00:59:21.080Z,461.00
2023-04-10T01:00:21.097Z,462.60
2023-04-10T01:01:21.086Z,474.20
2023-04-10T01:02:21.246Z,434.10
2023-04-10T01:03:21.217Z,450.00
2023-04-10T01:04:21.077Z,470.90
2023-04-10T01:05:21.007Z,413.30
2023-04-10T01:06:20.974Z,617.10
2023-04-10T01:07:20.957Z,625.00
2023-04-10T01:08:21.083Z,571.10
2023-04-10T01:09:20.952Z,446.80
2023-04-10T01:10:20.964Z,532.70
2023-04-10T01:11:20.929Z,436.20
2023-04-10T01:12:20.920Z,612.10
2023-04-10T01:13:20.949Z,602.10
2023-04-10T01:14:20.899Z,595.70
2023-04-10T01:15:20.883Z,592.10
2023-04-10T01:16:20.919Z,580.90
2023-04-10T01:17:20.863Z,525.40
2023-04-10T01:18:20.879Z,453.90
2023-04-10T01:19:20.839Z,386.50
2023-04-10T01:20:20.812Z,574.50
2023-04-10T01:21:20.808Z,369.90
2023-04-10T01:22:20.793Z,581.10
2023-04-10T01:23:20.828Z,559.50
2023-04-10T01:24:20.773Z,482.80
2023-04-10T01:25:20.765Z,468.20
2023-04-10T01:26:20.749Z,490.20
2023-04-10T01:27:20.751Z,466.50
2023-04-10T01:28:20.802Z,574.10
2023-04-10T01:29:20.727Z,650.40
2023-04-10T01:30:20.708Z,454.60
2023-04-10T01:31:20.832Z,542.60
2023-04-10T01:32:20.736Z,560.10
2023-04-10T01:33:20.719Z,410.50
2023-04-10T01:34:20.687Z,349.20
2023-04-10T01:35:20.655Z,346.50
2023-04-10T01:36:20.623Z,368.10
2023-04-10T01:37:20.606Z,398.70
2023-04-10T01:38:20.651Z,385.70
2023-04-10T01:39:20.594Z,347.50
2023-04-10T01:40:20.594Z,350.40
2023-04-10T01:41:20.577Z,354.00
2023-04-10T01:42:20.565Z,367.90
2023-04-10T01:43:20.615Z,372.40
2023-04-10T01:44:20.549Z,257.20
2023-04-10T01:45:20.563Z,292.80
2023-04-10T01:46:20.539Z,244.50
2023-04-10T01:47:20.511Z,472.50
2023-04-10T01:48:20.540Z,541.00
2023-04-10T01:49:20.497Z,356.10
2023-04-10T01:50:20.491Z,559.20
2023-04-10T01:51:20.457Z,483.80
2023-04-10T01:52:20.451Z,435.60
2023-04-10T01:53:20.481Z,435.40
2023-04-10T01:54:20.436Z,566.60
2023-04-10T01:55:20.424Z,521.20
2023-04-10T01:56:20.402Z,516.00
2023-04-10T01:57:20.433Z,517.50
2023-04-10T01:58:20.420Z,507.70
2023-04-10T01:59:20.363Z,491.90
2023-04-10T02:00:20.399Z,496.00
2023-04-10T02:01:29.229Z,494.30
2023-04-10T02:02:21.434Z,494.80
2023-04-10T02:03:20.637Z,513.00
2023-04-10T02:04:20.401Z,477.30
2023-04-10T02:05:20.299Z,387.10
2023-04-10T02:06:20.312Z,590.10
2023-04-10T02:07:20.327Z,521.60
2023-04-10T02:08:20.352Z,503.90
2023-04-10T02:09:20.254Z,493.80
2023-04-10T02:10:20.268Z,488.20
2023-04-10T02:11:20.296Z,478.30
2023-04-10T02:12:20.274Z,473.80
2023-04-10T02:13:20.282Z,458.60
2023-04-10T02:14:20.206Z,350.50
2023-04-10T02:15:20.196Z,489.40
2023-04-10T02:16:20.230Z,460.70
2023-04-10T02:17:20.198Z,465.50
2023-04-10T02:18:20.236Z,474.60
2023-04-10T02:19:20.183Z,479.40
2023-04-10T02:20:20.156Z,468.30
2023-04-10T02:21:20.158Z,464.70
2023-04-10T02:22:20.137Z,474.40
2023-04-10T02:23:20.132Z,474.20
2023-04-10T02:24:20.090Z,471.30
2023-04-10T02:25:20.074Z,325.90
2023-04-10T02:26:20.115Z,443.20
2023-04-10T02:27:20.040Z,402.10
2023-04-10T02:28:20.098Z,289.30
2023-04-10T02:29:20.046Z,272.10
2023-04-10T02:30:20.100Z,533.30
2023-04-10T02:31:20.066Z,492.30
2023-04-10T02:32:20.115Z,486.40
2023-04-10T02:33:20.040Z,496.20
2023-04-10T02:34:19.982Z,492.60
2023-04-10T02:35:19.965Z,489.10
2023-04-10T02:36:19.975Z,485.60
2023-04-10T02:37:19.946Z,242.00
2023-04-10T02:38:19.984Z,304.30
2023-04-10T02:39:19.931Z,271.00
2023-04-10T02:40:19.918Z,314.00
2023-04-10T02:41:19.900Z,287.00
2023-04-10T02:42:19.885Z,319.60
2023-04-10T02:43:19.874Z,253.30
2023-04-10T02:44:19.907Z,272.70
2023-04-10T02:45:19.850Z,326.70
2023-04-10T02:46:19.865Z,251.90
2023-04-10T02:47:19.871Z,255.30
2023-04-10T02:48:19.815Z,312.40
2023-04-10T02:49:19.872Z,292.20
2023-04-10T02:50:19.785Z,270.20
2023-04-10T02:51:19.774Z,300.40
2023-04-10T02:52:19.774Z,354.80
2023-04-10T02:53:19.758Z,299.10
2023-04-10T02:54:19.784Z,303.80
2023-04-10T02:55:19.733Z,373.50
2023-04-10T02:56:19.736Z,326.70
2023-04-10T02:57:19.708Z,306.20
2023-04-10T02:58:19.708Z,332.60
2023-04-10T02:59:19.723Z,252.50
2023-04-10T03:00:19.686Z,324.10
2023-04-10T03:01:19.818Z,266.50
2023-04-10T03:02:19.701Z,274.30
2023-04-10T03:03:19.723Z,283.90
2023-04-10T03:04:19.947Z,324.30
2023-04-10T03:05:19.607Z,301.90
2023-04-10T03:06:19.624Z,303.60
2023-04-10T03:07:19.592Z,441.80
2023-04-10T03:08:19.581Z,430.20
2023-04-10T03:09:19.633Z,363.90
2023-04-10T03:10:19.573Z,247.80
2023-04-10T03:11:19.544Z,258.40
2023-04-10T03:12:19.531Z,263.80
2023-04-10T03:13:19.545Z,271.20
2023-04-10T03:14:19.557Z,284.10
2023-04-10T03:15:19.492Z,323.00
2023-04-10T03:16:19.592Z,275.50
2023-04-10T03:17:19.469Z,311.00
2023-04-10T03:18:19.496Z,336.80
2023-04-10T03:19:19.492Z,287.80
2023-04-10T03:20:19.443Z,300.50
2023-04-10T03:21:19.439Z,404.10
2023-04-10T03:22:19.432Z,281.80
2023-04-10T03:23:19.494Z,311.60
2023-04-10T03:24:19.449Z,322.70
2023-04-10T03:25:19.393Z,283.60
2023-04-10T03:26:19.378Z,355.00
2023-04-10T03:27:19.362Z,282.70
2023-04-10T03:28:19.349Z,306.50
2023-04-10T03:29:19.383Z,281.80
2023-04-10T03:30:19.382Z,282.40
2023-04-10T03:31:19.342Z,328.50
2023-04-10T03:32:19.316Z,292.40
2023-04-10T03:33:19.289Z,382.80
2023-04-10T03:34:19.317Z,252.90
2023-04-10T03:35:19.263Z,311.50
2023-04-10T03:36:19.326Z,278.30
2023-04-10T03:37:19.246Z,316.80
2023-04-10T03:38:19.253Z,351.10
2023-04-10T03:39:19.295Z,307.60
2023-04-10T03:40:19.222Z,259.80
2023-04-10T03:41:19.197Z,384.00
2023-04-10T03:42:19.203Z,350.40
2023-04-10T03:43:19.180Z,363.80
2023-04-10T03:44:19.211Z,311.60
2023-04-10T03:45:19.163Z,304.00
2023-04-10T03:46:19.194Z,312.30
2023-04-10T03:47:19.141Z,324.90
2023-04-10T03:48:19.125Z,341.10
2023-04-10T03:49:19.144Z,362.60
2023-04-10T03:50:19.100Z,296.90
2023-04-10T03:51:19.084Z,284.50
2023-04-10T03:52:19.108Z,314.60
2023-04-10T03:53:19.082Z,310.10
2023-04-10T03:54:19.114Z,359.00
2023-04-10T03:55:19.170Z,297.30
2023-04-10T03:56:19.056Z,345.90
2023-04-10T03:57:19.019Z,294.50
2023-04-10T03:58:19.005Z,261.30
2023-04-10T03:59:19.040Z,315.50
2023-04-10T04:00:19.018Z,348.10
2023-04-10T04:01:18.967Z,283.60
2023-04-10T04:02:19.128Z,345.10
2023-04-10T04:03:19.150Z,312.80
2023-04-10T04:04:19.052Z,382.50
2023-04-10T04:05:18.950Z,340.20
2023-04-10T04:06:18.922Z,322.20
2023-04-10T04:07:18.914Z,362.70
2023-04-10T04:08:18.897Z,362.70
2023-04-10T04:09:18.918Z,387.90
2023-04-10T04:10:18.872Z,340.90
2023-04-10T04:11:18.859Z,374.10
2023-04-10T04:12:18.849Z,346.50
2023-04-10T04:13:18.850Z,335.40
2023-04-10T04:14:18.866Z,369.00
2023-04-10T04:15:18.809Z,360.10
2023-04-10T04:16:18.837Z,350.10
2023-04-10T04:17:18.779Z,363.50
2023-04-10T04:18:18.781Z,334.70
2023-04-10T04:19:18.805Z,375.30
2023-04-10T04:20:18.749Z,379.40
2023-04-10T04:21:18.746Z,363.00
2023-04-10T04:22:18.738Z,335.60
2023-04-10T04:23:18.705Z,351.70
2023-04-10T04:24:18.764Z,366.90
2023-04-10T04:25:18.708Z,325.70
2023-04-10T04:26:18.694Z,304.60
2023-04-10T04:27:18.665Z,328.60
2023-04-10T04:28:18.664Z,313.00
2023-04-10T04:29:18.688Z,264.70
2023-04-10T04:30:18.780Z,243.30
2023-04-10T04:31:18.775Z,251.00
2023-04-10T04:32:18.918Z,278.00
2023-04-10T04:33:18.682Z,250.40
2023-04-10T04:34:18.742Z,249.80
2023-04-10T04:35:18.682Z,246.60
2023-04-10T04:36:18.618Z,215.40
2023-04-10T04:37:18.583Z,198.40
2023-04-10T04:38:18.548Z,242.20
2023-04-10T04:39:18.603Z,224.20
2023-04-10T04:40:18.534Z,214.00
2023-04-10T04:41:20.482Z,229.00
2023-04-10T04:42:18.523Z,223.00
2023-04-10T04:43:18.492Z,225.30
2023-04-10T04:44:18.559Z,287.40
2023-04-10T04:45:18.465Z,452.90
2023-04-10T04:46:18.487Z,450.80
2023-04-10T04:47:18.455Z,383.50
2023-04-10T04:48:18.466Z,567.20
2023-04-10T04:49:18.463Z,454.90
2023-04-10T04:50:18.404Z,237.90
2023-04-10T04:51:18.468Z,431.80
2023-04-10T04:52:18.398Z,323.10
2023-04-10T04:53:18.367Z,216.10
2023-04-10T04:54:18.426Z,298.20
2023-04-10T04:55:18.462Z,299.20
2023-04-10T04:56:18.382Z,306.60
2023-04-10T04:57:18.334Z,233.20
2023-04-10T04:58:18.325Z,270.70
2023-04-10T04:59:18.361Z,260.40
2023-04-10T05:00:18.290Z,237.30
2023-04-10T05:01:18.330Z,278.50
2023-04-10T05:02:18.294Z,364.20
2023-04-10T05:03:18.446Z,409.90
2023-04-10T05:04:18.475Z,326.00
2023-04-10T05:05:18.233Z,462.40
2023-04-10T05:06:18.222Z,508.10
2023-04-10T05:07:18.235Z,717.40
2023-04-10T05:08:18.206Z,584.80
2023-04-10T05:09:18.275Z,624.10
2023-04-10T05:10:18.244Z,548.80
2023-04-10T05:11:18.167Z,358.10
2023-04-10T05:12:18.150Z,999.90
2023-04-10T05:13:18.140Z,999.90
2023-04-10T05:14:18.199Z,424.90
2023-04-10T05:15:18.156Z,398.30
2023-04-10T05:16:18.140Z,999.90
2023-04-10T05:17:18.114Z,999.90
2023-04-10T05:18:18.241Z,422.60
2023-04-10T05:19:18.139Z,999.90
2023-04-10T05:20:18.066Z,999.90
2023-04-10T05:21:18.056Z,999.90
2023-04-10T05:22:18.707Z,999.90
2023-04-10T05:23:18.025Z,91.90
2023-04-10T05:24:18.076Z,999.90
2023-04-10T05:25:18.009Z,999.90
2023-04-10T05:26:18.024Z,999.90
2023-04-10T05:27:17.994Z,999.90
2023-04-10T05:28:17.991Z,999.90
2023-04-10T05:29:18.009Z,999.90
2023-04-10T05:30:17.977Z,999.90
2023-04-10T05:31:17.946Z,999.90
2023-04-10T05:32:17.933Z,999.90
2023-04-10T05:33:17.912Z,999.90
2023-04-10T05:34:17.946Z,999.90
2023-04-10T05:35:17.882Z,999.90
2023-04-10T05:36:17.958Z,999.90
2023-04-10T05:37:17.902Z,999.90
2023-04-10T05:38:17.873Z,999.90
2023-04-10T05:39:17.900Z,999.90
2023-04-10T05:40:17.861Z,999.90
2023-04-10T05:41:17.825Z,999.90
2023-04-10T05:42:17.874Z,999.90
2023-04-10T05:43:17.802Z,999.90
2023-04-10T05:44:17.797Z,999.90
2023-04-10T05:45:17.825Z,999.90
2023-04-10T05:46:17.882Z,999.90
2023-04-10T05:47:17.803Z,999.90
2023-04-10T05:48:17.867Z,999.90
2023-04-10T05:49:17.730Z,999.90
2023-04-10T05:50:17.770Z,999.90
2023-04-10T05:51:17.737Z,999.90
2023-04-10T05:52:17.763Z,999.90
2023-04-10T05:53:17.689Z,999.90
2023-04-10T05:54:17.695Z,999.90
2023-04-10T05:55:17.708Z,999.90
2023-04-10T05:56:17.665Z,999.90
2023-04-10T05:57:17.664Z,999.90
2023-04-10T05:58:17.634Z,999.90
2023-04-10T05:59:17.607Z,999.90
2023-04-10T06:00:17.634Z,999.90
2023-04-10T06:01:17.602Z,999.90
2023-04-10T06:02:17.748Z,71.70
2023-04-10T06:03:17.658Z,828.00
2023-04-10T06:04:17.747Z,999.90
2023-04-10T06:05:17.760Z,955.60
2023-04-10T06:06:17.547Z,191.80
2023-04-10T06:07:17.604Z,66.20
2023-04-10T06:08:17.517Z,82.90
2023-04-10T06:09:17.523Z,100.50
2023-04-10T06:10:17.601Z,72.40
2023-04-10T06:11:17.483Z,49.80
2023-04-10T06:12:17.486Z,54.80
2023-04-10T06:13:17.467Z,57.50
2023-04-10T06:14:17.445Z,64.10
2023-04-10T06:15:17.530Z,62.80
2023-04-10T06:16:17.450Z,53.00
2023-04-10T06:17:17.411Z,44.10
2023-04-10T06:18:17.411Z,42.80
2023-04-10T06:19:17.380Z,41.50
2023-04-10T06:20:17.419Z,45.50
2023-04-10T06:21:17.349Z,44.30
2023-04-10T06:22:17.359Z,44.60
2023-04-10T06:23:17.352Z,44.40
2023-04-10T06:24:17.326Z,45.10
2023-04-10T06:25:17.367Z,43.60
2023-04-10T06:26:17.302Z,45.60
2023-04-10T06:27:17.288Z,41.80
2023-04-10T06:28:17.271Z,39.30
2023-04-10T06:29:17.260Z,59.50
2023-04-10T06:30:17.333Z,59.00
2023-04-10T06:31:17.281Z,47.60
2023-04-10T06:32:18.028Z,41.90
2023-04-10T06:33:17.323Z,38.20
2023-04-10T06:34:17.210Z,54.70
2023-04-10T06:35:17.290Z,52.20
2023-04-10T06:36:17.213Z,50.60
2023-04-10T06:37:17.174Z,40.30
2023-04-10T06:38:17.182Z,27.20
2023-04-10T06:39:17.150Z,22.70
2023-04-10T06:40:17.224Z,24.30
2023-04-10T06:41:17.168Z,23.50
2023-04-10T06:42:17.112Z,23.40
2023-04-10T06:43:17.138Z,24.00
2023-04-10T06:44:17.109Z,21.50
2023-04-10T06:45:17.122Z,19.80
2023-04-10T06:46:17.104Z,20.10
2023-04-10T06:47:17.086Z,21.10
2023-04-10T06:48:17.046Z,22.70
2023-04-10T06:49:17.058Z,24.80
2023-04-10T06:50:17.088Z,27.20
2023-04-10T06:51:17.020Z,28.40
2023-04-10T06:52:17.004Z,29.20
2023-04-10T06:53:16.989Z,29.00
2023-04-10T06:54:16.989Z,29.80
2023-04-10T06:55:17.134Z,30.30
2023-04-10T06:56:16.995Z,28.70
2023-04-10T06:57:16.944Z,27.30
2023-04-10T06:58:16.929Z,25.90
2023-04-10T06:59:16.921Z,23.00
2023-04-10T07:00:16.966Z,24.20
2023-04-10T07:01:16.985Z,27.00
2023-04-10T07:02:16.907Z,28.40
2023-04-10T07:03:16.913Z,29.10
2023-04-10T07:04:16.906Z,31.30
2023-04-10T07:05:17.092Z,29.90
2023-04-10T07:06:16.942Z,28.20
2023-04-10T07:07:16.978Z,29.40
2023-04-10T07:08:16.833Z,29.90
2023-04-10T07:09:16.835Z,30.70
2023-04-10T07:10:16.854Z,27.50
2023-04-10T07:11:16.820Z,27.70
2023-04-10T07:12:16.761Z,24.80
2023-04-10T07:13:16.784Z,23.10
2023-04-10T07:14:16.782Z,20.40
2023-04-10T07:15:16.824Z,19.50
2023-04-10T07:16:16.826Z,17.60
2023-04-10T07:17:16.716Z,17.30
2023-04-10T07:18:16.703Z,17.10
2023-04-10T07:19:16.696Z,17.20
2023-04-10T07:20:16.721Z,16.80
2023-04-10T07:21:16.677Z,16.90
2023-04-10T07:22:16.661Z,16.30
2023-04-10T07:23:16.657Z,16.10
2023-04-10T07:24:16.660Z,15.30
2023-04-10T07:25:16.670Z,17.10
2023-04-10T07:26:16.599Z,17.80
2023-04-10T07:27:16.599Z,19.50
2023-04-10T07:28:16.595Z,19.10
2023-04-10T07:29:16.578Z,18.80
2023-04-10T07:30:16.637Z,18.20
2023-04-10T07:31:16.564Z,18.80
2023-04-10T07:32:16.729Z,19.30
2023-04-10T07:33:16.677Z,19.60
2023-04-10T07:34:16.518Z,20.40
2023-04-10T07:35:16.570Z,21.90
2023-04-10T07:36:16.586Z,24.10
2023-04-10T07:37:16.499Z,24.00
2023-04-10T07:38:16.467Z,22.40
2023-04-10T07:39:16.486Z,21.90
2023-04-10T07:40:16.492Z,22.80
2023-04-10T07:41:16.466Z,24.90
2023-04-10T07:42:16.441Z,24.70
2023-04-10T07:43:16.432Z,22.60
2023-04-10T07:44:16.407Z,21.20
2023-04-10T07:45:16.459Z,20.80
2023-04-10T07:46:16.482Z,20.70
2023-04-10T07:47:16.405Z,22.10
2023-04-10T07:48:16.362Z,20.60
2023-04-10T07:49:16.376Z,18.80
2023-04-10T07:50:16.443Z,19.20
2023-04-10T07:51:16.345Z,19.30
2023-04-10T07:52:16.306Z,17.90
2023-04-10T07:53:16.305Z,17.50
2023-04-10T07:54:16.292Z,17.10
2023-04-10T07:55:16.315Z,16.20
2023-04-10T07:56:16.258Z,14.70
2023-04-10T07:57:16.280Z,14.50
2023-04-10T07:58:16.238Z,13.50
2023-04-10T07:59:16.250Z,13.60
2023-04-10T08:00:16.279Z,14.30
2023-04-10T08:01:16.227Z,15.60
2023-04-10T08:02:16.303Z,17.00
2023-04-10T08:03:16.437Z,20.90
2023-04-10T08:04:16.305Z,21.00
2023-04-10T08:05:16.272Z,22.10
2023-04-10T08:06:16.149Z,21.20
2023-04-10T08:07:16.137Z,20.70
2023-04-10T08:08:16.143Z,20.90
2023-04-10T08:09:16.113Z,23.10
2023-04-10T08:10:16.137Z,24.20
2023-04-10T08:11:16.088Z,26.50
2023-04-10T08:12:16.075Z,28.60
2023-04-10T08:13:16.092Z,29.50
2023-04-10T08:14:18.591Z,29.50
2023-04-10T08:15:16.102Z,29.10
2023-04-10T08:16:16.058Z,31.10
2023-04-10T08:17:16.028Z,31.30
2023-04-10T08:18:16.016Z,30.70
2023-04-10T08:19:16.018Z,30.60
2023-04-10T08:20:16.043Z,26.80
2023-04-10T08:21:15.979Z,20.40
2023-04-10T08:22:15.953Z,16.60
2023-04-10T08:23:20.423Z,16.10
2023-04-10T08:24:16.949Z,16.20
2023-04-10T08:25:15.970Z,15.50
2023-04-10T08:26:15.925Z,16.50
2023-04-10T08:27:15.921Z,19.00
2023-04-10T08:28:15.887Z,19.60
2023-04-10T08:29:15.893Z,18.60
2023-04-10T08:30:15.919Z,19.90
2023-04-10T08:31:15.889Z,20.50
2023-04-10T08:32:15.853Z,21.30
2023-04-10T08:33:15.950Z,21.30
2023-04-10T08:34:15.831Z,20.60
2023-04-10T08:35:15.827Z,21.10
2023-04-10T08:36:17.677Z,20.60
2023-04-10T08:37:15.795Z,18.40
2023-04-10T08:38:15.787Z,18.90
2023-04-10T08:39:15.781Z,15.60
2023-04-10T08:40:15.746Z,12.90
2023-04-10T08:41:15.785Z,13.20
2023-04-10T08:42:15.748Z,13.90
2023-04-10T08:43:15.724Z,13.10
2023-04-10T08:44:15.723Z,12.30
2023-04-10T08:45:15.696Z,13.70
2023-04-10T08:46:15.741Z,14.50
2023-04-10T08:47:15.696Z,17.20
2023-04-10T08:48:15.673Z,17.90
2023-04-10T08:49:15.670Z,14.70
2023-04-10T08:50:15.634Z,13.70
2023-04-10T08:51:20.096Z,13.10
2023-04-10T08:52:15.617Z,11.80
2023-04-10T08:53:15.610Z,10.90
2023-04-10T08:54:15.592Z,11.10
2023-04-10T08:55:15.584Z,13.40
2023-04-10T08:56:15.613Z,15.00
2023-04-10T08:57:15.554Z,18.00
2023-04-10T08:58:15.553Z,21.70
2023-04-10T08:59:15.560Z,22.90
2023-04-10T09:00:23.064Z,22.30
2023-04-10T09:01:16.676Z,18.90
2023-04-10T09:02:15.599Z,16.90
2023-04-10T09:03:15.588Z,17.50
2023-04-10T09:04:15.577Z,20.90
2023-04-10T09:05:15.466Z,18.70
2023-04-10T09:06:15.486Z,20.40
2023-04-10T09:07:15.434Z,23.00
2023-04-10T09:08:15.425Z,21.80
2023-04-10T09:09:15.428Z,22.00
2023-04-10T09:10:15.433Z,20.90
2023-04-10T09:11:15.464Z,19.30
2023-04-10T09:12:15.401Z,18.40
2023-04-10T09:13:15.373Z,22.10
2023-04-10T09:14:15.363Z,14.60
2023-04-10T09:15:15.382Z,14.10
2023-04-10T09:16:15.570Z,13.50
2023-04-10T09:17:15.458Z,13.20
2023-04-10T09:18:15.327Z,11.80
2023-04-10T09:19:15.311Z,11.30
2023-04-10T09:20:15.296Z,11.20
2023-04-10T09:21:15.334Z,12.50
2023-04-10T09:22:15.265Z,11.40
2023-04-10T09:23:15.252Z,10.60
2023-04-10T09:24:15.228Z,11.40
2023-04-10T09:25:15.231Z,10.70
2023-04-10T09:26:15.406Z,10.40
2023-04-10T09:27:15.254Z,10.70
2023-04-10T09:28:15.204Z,10.70
2023-04-10T09:29:15.314Z,11.30
2023-04-10T09:30:15.184Z,11.80
2023-04-10T09:31:15.298Z,11.10
2023-04-10T09:32:15.168Z,11.30
2023-04-10T09:33:15.179Z,12.50
2023-04-10T09:34:15.148Z,14.80
2023-04-10T09:35:15.199Z,16.10
2023-04-10T09:36:15.197Z,15.80
2023-04-10T09:37:15.115Z,15.70
2023-04-10T09:38:15.091Z,15.80
2023-04-10T09:39:15.092Z,15.60
2023-04-10T09:40:15.106Z,13.40
2023-04-10T09:41:15.102Z,13.20
2023-04-10T09:42:15.087Z,13.70
2023-04-10T09:43:15.042Z,14.30
2023-04-10T09:44:15.063Z,14.80
2023-04-10T09:45:15.043Z,15.80
2023-04-10T09:46:15.197Z,15.30
2023-04-10T09:47:15.036Z,17.00
2023-04-10T09:48:15.036Z,16.10
2023-04-10T09:49:14.987Z,15.90
2023-04-10T09:50:15.014Z,15.50
2023-04-10T09:51:15.041Z,14.80
2023-04-10T09:52:15.131Z,14.50
2023-04-10T09:53:14.937Z,13.80
2023-04-10T09:54:14.925Z,13.00
2023-04-10T09:55:14.907Z,14.50
2023-04-10T09:56:14.966Z,15.40
2023-04-10T09:57:14.913Z,14.70
2023-04-10T09:58:14.899Z,14.90
2023-04-10T09:59:14.880Z,13.90
2023-04-10T10:00:14.869Z,14.40
2023-04-10T10:01:14.944Z,14.20
2023-04-10T10:02:14.972Z,14.50
2023-04-10T10:03:15.001Z,14.10
2023-04-10T10:04:14.834Z,14.70
2023-04-10T10:05:14.848Z,13.90
2023-04-10T10:06:14.842Z,13.90
2023-04-10T10:07:14.786Z,13.60
2023-04-10T10:08:14.765Z,13.20
2023-04-10T10:09:14.816Z,13.60
2023-04-10T10:10:14.736Z,13.30
2023-04-10T10:11:14.786Z,14.50
2023-04-10T10:12:14.707Z,14.00
2023-04-10T10:13:14.792Z,12.30
2023-04-10T10:14:14.697Z,12.80
2023-04-10T10:15:14.690Z,12.40
2023-04-10T10:16:14.775Z,13.20
2023-04-10T10:17:14.666Z,12.80
2023-04-10T10:18:14.645Z,12.30
2023-04-10T10:19:14.809Z,13.50
2023-04-10T10:20:14.638Z,11.80
2023-04-10T10:21:14.716Z,12.50
2023-04-10T10:22:14.610Z,12.00
2023-04-10T10:23:14.669Z,11.80
2023-04-10T10:24:14.612Z,12.30
2023-04-10T10:25:14.606Z,11.60
2023-04-10T10:26:14.620Z,12.20
2023-04-10T10:27:14.540Z,12.70
2023-04-10T10:28:14.551Z,11.70
2023-04-10T10:29:14.523Z,11.80
2023-04-10T10:30:28.296Z,11.70
2023-04-10T10:31:15.662Z,11.10
2023-04-10T10:32:14.493Z,11.80
2023-04-10T10:33:14.514Z,12.00
2023-04-10T10:34:14.464Z,11.40
2023-04-10T10:35:14.465Z,11.80
2023-04-10T10:36:14.528Z,11.80
2023-04-10T10:37:14.458Z,10.90
2023-04-10T10:38:14.437Z,11.40
2023-04-10T10:39:14.417Z,11.60
2023-04-10T10:40:14.428Z,11.70
2023-04-10T10:41:14.383Z,11.40
2023-04-10T10:42:14.447Z,11.70
2023-04-10T10:43:14.367Z,12.10
2023-04-10T10:44:14.358Z,11.90
2023-04-10T10:45:14.334Z,11.70
2023-04-10T10:46:14.476Z,11.60
2023-04-10T10:47:14.366Z,12.20
2023-04-10T10:48:14.331Z,12.30
2023-04-10T10:49:14.318Z,12.00
2023-04-10T10:50:14.364Z,11.70
2023-04-10T10:51:14.297Z,11.90
2023-04-10T10:52:14.308Z,12.00
2023-04-10T10:53:14.269Z,11.80
2023-04-10T10:54:14.313Z,11.50
2023-04-10T10:55:14.224Z,11.90
2023-04-10T10:56:14.236Z,11.70
2023-04-10T10:57:14.263Z,12.00
2023-04-10T10:58:14.208Z,11.40
2023-04-10T10:59:14.193Z,11.40
2023-04-10T11:00:14.203Z,10.90
2023-04-10T11:01:14.259Z,11.40
2023-04-10T11:02:14.385Z,11.30
2023-04-10T11:03:14.328Z,11.50
2023-04-10T11:04:14.209Z,10.90
2023-04-10T11:05:14.154Z,11.00
2023-04-10T11:06:14.119Z,11.10
2023-04-10T11:07:14.301Z,11.10
2023-04-10T11:08:14.119Z,11.20
2023-04-10T11:09:14.099Z,11.10
2023-04-10T11:10:14.115Z,10.50
2023-04-10T11:11:14.097Z,10.60
2023-04-10T11:12:14.090Z,10.50
2023-04-10T11:13:14.045Z,10.30
2023-04-10T11:14:14.041Z,9.70
2023-04-10T11:15:14.124Z,10.50
2023-04-10T11:16:14.188Z,9.90
2023-04-10T11:17:14.037Z,9.40
2023-04-10T11:18:14.021Z,9.80
2023-04-10T11:19:16.281Z,10.10
2023-04-10T11:20:13.974Z,9.70
2023-04-10T11:21:13.952Z,9.20
2023-04-10T11:22:13.961Z,9.90
2023-04-10T11:23:13.925Z,10.40
2023-04-10T11:24:13.914Z,9.90
2023-04-10T11:25:13.905Z,10.00
2023-04-10T11:26:13.883Z,9.70
2023-04-10T11:27:13.912Z,9.70
2023-04-10T11:28:13.869Z,9.80
2023-04-10T11:29:13.884Z,11.00
2023-04-10T11:30:13.911Z,10.60
2023-04-10T11:31:13.856Z,10.00
2023-04-10T11:32:14.036Z,10.60
2023-04-10T11:33:13.806Z,10.90
2023-04-10T11:34:13.821Z,10.90
2023-04-10T11:35:13.778Z,11.10
2023-04-10T11:36:13.762Z,10.50
2023-04-10T11:37:13.838Z,10.80
2023-04-10T11:38:13.750Z,11.00
2023-04-10T11:39:13.719Z,11.60
2023-04-10T11:40:13.712Z,11.80
2023-04-10T11:41:13.714Z,11.10
2023-04-10T11:42:13.756Z,11.90
2023-04-10T11:43:13.681Z,11.70
2023-04-10T11:44:13.682Z,13.50
2023-04-10T11:45:13.687Z,13.00
2023-04-10T11:46:13.690Z,11.90
2023-04-10T11:47:13.692Z,11.50
2023-04-10T11:48:13.651Z,12.60
2023-04-10T11:49:13.618Z,12.50
2023-04-10T11:50:13.760Z,12.70
2023-04-10T11:51:13.604Z,12.70
2023-04-10T11:52:13.637Z,13.00
2023-04-10T11:53:13.577Z,12.90
2023-04-10T11:54:13.633Z,12.30
2023-04-10T11:55:13.549Z,12.00
2023-04-10T11:56:13.542Z,12.40
2023-04-10T11:57:13.558Z,12.90
2023-04-10T11:58:13.505Z,12.70
2023-04-10T11:59:13.540Z,12.40
2023-04-10T12:00:13.603Z,12.40
2023-04-10T12:01:13.497Z,11.80
2023-04-10T12:02:13.573Z,12.70
2023-04-10T12:03:13.609Z,12.40
2023-04-10T12:04:13.550Z,12.00
2023-04-10T12:05:13.565Z,12.20
2023-04-10T12:06:13.427Z,12.10
2023-04-10T12:07:13.457Z,11.90
2023-04-10T12:08:13.432Z,12.00
2023-04-10T12:09:14.436Z,11.90
2023-04-10T12:10:13.519Z,12.30
2023-04-10T12:11:13.387Z,12.60
2023-04-10T12:12:13.405Z,11.80
2023-04-10T12:13:13.368Z,14.60
2023-04-10T12:14:13.378Z,13.00
2023-04-10T12:15:13.345Z,12.70
2023-04-10T12:16:13.575Z,10.90
2023-04-10T12:17:13.378Z,11.70
2023-04-10T12:18:13.296Z,10.50
2023-04-10T12:19:13.300Z,10.20
2023-04-10T12:20:13.279Z,10.40
2023-04-10T12:21:13.260Z,10.30
2023-04-10T12:22:14.084Z,10.00
2023-04-10T12:23:13.249Z,9.80
2023-04-10T12:24:13.284Z,10.20
2023-04-10T12:25:13.212Z,9.80
2023-04-10T12:26:13.215Z,9.90
2023-04-10T12:27:13.236Z,9.50
2023-04-10T12:28:13.207Z,9.40
2023-04-10T12:29:13.170Z,9.70
2023-04-10T12:30:13.178Z,9.10
2023-04-10T12:31:13.192Z,8.80
2023-04-10T12:32:13.203Z,9.10
2023-04-10T12:33:13.132Z,8.60
2023-04-10T12:34:13.129Z,8.70
2023-04-10T12:35:13.133Z,8.50
2023-04-10T12:36:13.105Z,8.70
2023-04-10T12:37:13.132Z,8.50
2023-04-10T12:38:13.119Z,8.80
2023-04-10T12:39:13.136Z,8.40
2023-04-10T12:40:13.068Z,8.50
2023-04-10T12:41:13.086Z,8.30